This demonstration page uses our WeatherBlox Daily Observations layout. Learn more.

39.92423, -83.80882

Hourly Observations for July 23, 2016

Temp ( °F °C ) Dew Point ( °F °C ) Humidity (%) Winds ( mph kmh ) Pressure ( in mb ) Visibility ( mi km ) Precip ( " mm )
12:56 am 00:56 Clear 72 22.2 70 21.1 94 94 SW 7 11 N/A 10 16.0934 0 0
1:56 am 01:56 Mostly Clear 72 22.2 70 21.1 94 94 SW 6 9 30.02 1017 9 14.48406 0 0
2:56 am 02:56 Clear 71 21.7 70 21.1 96 96 undefined N/A N/A 7 11.26538 0 0
4:56 am 04:56 Clear with Mist and Fog 69 20.6 68 20 96 96 W 5 7 N/A 4 6.43736 0 0
5:35 am 05:35 Clear with Mist and Fog 70 21 70 21 100 100 Calm 30 1016 2.5 4.02335 0 0
5:46 am 05:46 Clear with Mist and Fog 70 21 70 21 100 100 Calm 30 1016 1.75 2.816345 0 0
5:56 am 05:56 Clear with Mist and Fog 68 20 68 20 100 100 Calm 30.01 1016 1.75 2.816345 0 0
6:10 am 06:10 Clear with Mist and Fog 70 21 68 20 94 94 Calm 30 1016 0.75 1.207005 0 0
6:12 am 06:12 Clear with Fog 68 20 68 20 100 100 Calm 30 1016 0.25 0.402335 0 0
6:23 am 06:23 Mostly Cloudy with Fog 68 20 68 20 100 100 Calm 30 1016 5 8.0467 0 0
6:56 am 06:56 Cloudy with Fog 68 20 67 19.4 96 96 Calm 30.02 1017 5 8.0467 0 0
7:34 am 07:34 Cloudy with Mist and Fog 70 21 70 21 100 100 Calm 30 1016 0.75 1.207005 0 0
7:38 am 07:38 Cloudy with Mist and Fog 70 21 70 21 100 100 Calm 30 1016 1.25 2.011675 0 0
7:46 am 07:46 Cloudy with Fog 70 21 70 21 100 100 Calm 30 1016 0.5 0.80467 0 0
7:54 am 07:54 Cloudy with Fog 72 22 72 22 100 100 Calm 30 1016 0.25 0.402335 0 0
7:56 am 07:56 Cloudy with Fog 71 21.7 71 21.7 100 100 Calm 30.01 1016 0.25 0.402335 0 0
8:07 am 08:07 Cloudy with Fog 72 22 72 22 100 100 Calm 30 1016 0.25 0.402335 0 0
8:16 am 08:16 Cloudy with Mist and Fog 73 23 72 22 94 94 Calm 30 1016 0.75 1.207005 0 0
8:20 am 08:20 Mostly Cloudy with Mist and Fog 73 23 72 22 94 94 Calm 30 1016 1.25 2.011675 0 0
8:24 am 08:24 Mostly Cloudy with Mist and Fog 73 23 73 23 100 100 undefined N/A 30 1016 3 4.82802 0 0
8:34 am 08:34 Partly Cloudy 75 24 73 23 94 94 Calm 30 1016 7 11.26538 0 0
8:56 am 08:56 Sunny 77 25 73 22.8 88 88 Calm 30.02 1017 10 16.0934 0 0
9:56 am 09:56 Sunny 81 27.2 73 22.8 77 77 undefined N/A 30.02 1017 10 16.0934 0 0
10:56 am 10:56 Mostly Cloudy 82 27.8 73 22.8 74 74 SSW 3 6 N/A 10 16.0934 0 0
11:07 am 11:07 Partly Cloudy 84 29 73 23 70 70 SSW 5 7 30 1016 10 16.0934 0 0
11:15 am 11:15 Mostly Cloudy 84 29 73 23 70 70 SW 5 7 30 1016 10 16.0934 0 0
11:41 am 11:41 Partly Cloudy 84 29 72 22 66 66 Calm 30 1016 10 16.0934 0 0
11:56 am 11:56 Mostly Sunny 85 29.4 72 22.2 65 65 Calm N/A 10 16.0934 0 0
12:56 pm 12:56 Mostly Cloudy 86 30 73 22.8 65 65 WSW 5 7 30.01 1016 10 16.0934 0 0
1:56 pm 13:56 Mostly Cloudy 86 30 73 22.8 65 65 undefined N/A N/A 10 16.0934 0 0
2:56 pm 14:56 Sunny 86 30 72 22.2 63 63 SW 7 11 30 1016 10 16.0934 0 0
3:56 pm 15:56 Mostly Sunny 89 31.7 73 22.8 59 59 W 5 7 29.98 1015 10 16.0934 0 0
4:56 pm 16:56 Mostly Sunny 88 31.1 74 23.3 63 63 undefined N/A 29.98 1015 10 16.0934 0 0
5:56 pm 17:56 Sunny 89 31.7 72 22.2 57 57 W 6 9 29.96 1015 10 16.0934 0 0
6:56 pm 18:56 Sunny 89 31.7 72 22.2 57 57 WNW 5 7 29.95 1014 10 16.0934 0 0
7:56 pm 19:56 Sunny 87 30.6 73 22.8 63 63 NW 3 6 29.96 1014 10 16.0934 0 0
8:56 pm 20:56 Sunny 83 28.3 72 22.2 70 70 Calm 29.97 1015 10 16.0934 0 0
9:56 pm 21:56 Clear 79 26.1 73 22.8 82 82 Calm N/A 10 16.0934 0 0
10:56 pm 22:56 Clear 75 23.9 73 22.8 94 94 Calm 30.01 1016 10 16.0934 0 0
11:56 pm 23:56 Clear 75 23.9 72 22.2 90 90 S 3 6 30 1016 10 16.0934 0 0

Powered by AerisWeather